sensor_id;sensor_type;location;lat;lon;timestamp;temperature;humidity
38568;DHT22;24338;48.280;10.970;2023-04-24T00:02:04;9.90;99.90
38568;DHT22;24338;48.280;10.970;2023-04-24T00:05:09;9.90;99.90
38568;DHT22;24338;48.280;10.970;2023-04-24T00:10:42;9.80;99.90
38568;DHT22;24338;48.280;10.970;2023-04-24T00:13:09;9.70;99.90
38568;DHT22;24338;48.280;10.970;2023-04-24T00:15:36;9.70;99.90
38568;DHT22;24338;48.280;10.970;2023-04-24T00:18:04;9.70;99.90
38568;DHT22;24338;48.280;10.970;2023-04-24T00:20:40;9.80;99.90
38568;DHT22;24338;48.280;10.970;2023-04-24T00:23:25;9.70;99.90
38568;DHT22;24338;48.280;10.970;2023-04-24T00:25:53;9.70;99.90
38568;DHT22;24338;48.280;10.970;2023-04-24T00:28:21;9.60;99.90
38568;DHT22;24338;48.280;10.970;2023-04-24T00:30:49;9.60;99.90
38568;DHT22;24338;48.280;10.970;2023-04-24T00:33:20;9.60;99.90
38568;DHT22;24338;48.280;10.970;2023-04-24T00:35:50;9.60;99.90
38568;DHT22;24338;48.280;10.970;2023-04-24T00:38:19;9.60;99.90
38568;DHT22;24338;48.280;10.970;2023-04-24T00:40:48;9.60;99.90
38568;DHT22;24338;48.280;10.970;2023-04-24T00:43:23;9.50;99.90
38568;DHT22;24338;48.280;10.970;2023-04-24T00:45:51;9.50;99.90
38568;DHT22;24338;48.280;10.970;2023-04-24T00:48:23;9.50;99.90
38568;DHT22;24338;48.280;10.970;2023-04-24T00:50:53;9.50;99.90
38568;DHT22;24338;48.280;10.970;2023-04-24T00:53:45;9.50;99.90
38568;DHT22;24338;48.280;10.970;2023-04-24T00:56:14;9.50;99.90
38568;DHT22;24338;48.280;10.970;2023-04-24T00:58:44;9.50;99.90
38568;DHT22;24338;48.280;10.970;2023-04-24T01:01:39;9.50;99.90
38568;DHT22;24338;48.280;10.970;2023-04-24T01:04:24;9.50;99.90
38568;DHT22;24338;48.280;10.970;2023-04-24T01:07:20;9.40;99.90
38568;DHT22;24338;48.280;10.970;2023-04-24T01:10:10;9.40;99.90
38568;DHT22;24338;48.280;10.970;2023-04-24T01:12:46;9.40;99.90
38568;DHT22;24338;48.280;10.970;2023-04-24T01:15:33;9.40;99.90
38568;DHT22;24338;48.280;10.970;2023-04-24T01:18:15;9.40;99.90
38568;DHT22;24338;48.280;10.970;2023-04-24T01:21:15;9.40;99.90
38568;DHT22;24338;48.280;10.970;2023-04-24T01:23:57;9.40;99.90
38568;DHT22;24338;48.280;10.970;2023-04-24T01:26:35;9.40;99.90
38568;DHT22;24338;48.280;10.970;2023-04-24T01:29:07;9.30;99.90
38568;DHT22;24338;48.280;10.970;2023-04-24T01:31:35;9.30;99.90
38568;DHT22;24338;48.280;10.970;2023-04-24T01:34:05;9.30;99.90
38568;DHT22;24338;48.280;10.970;2023-04-24T01:36:33;9.30;99.90
38568;DHT22;24338;48.280;10.970;2023-04-24T01:39:03;9.40;99.90
38568;DHT22;24338;48.280;10.970;2023-04-24T01:41:34;9.30;99.90
38568;DHT22;24338;48.280;10.970;2023-04-24T01:44:07;9.30;99.90
38568;DHT22;24338;48.280;10.970;2023-04-24T01:46:35;9.30;99.90
38568;DHT22;24338;48.280;10.970;2023-04-24T01:49:04;9.30;99.90
38568;DHT22;24338;48.280;10.970;2023-04-24T01:51:34;9.30;99.90
38568;DHT22;24338;48.280;10.970;2023-04-24T01:54:03;9.30;99.90
38568;DHT22;24338;48.280;10.970;2023-04-24T01:56:33;9.20;99.90
38568;DHT22;24338;48.280;10.970;2023-04-24T01:59:06;9.30;99.90
38568;DHT22;24338;48.280;10.970;2023-04-24T02:01:39;9.30;99.90
38568;DHT22;24338;48.280;10.970;2023-04-24T02:04:07;9.30;99.90
38568;DHT22;24338;48.280;10.970;2023-04-24T02:06:44;9.30;99.90
38568;DHT22;24338;48.280;10.970;2023-04-24T02:09:19;9.30;99.90
38568;DHT22;24338;48.280;10.970;2023-04-24T02:11:49;9.30;99.90
38568;DHT22;24338;48.280;10.970;2023-04-24T02:14:18;9.30;99.90
38568;DHT22;24338;48.280;10.970;2023-04-24T02:16:47;9.30;99.90
38568;DHT22;24338;48.280;10.970;2023-04-24T02:19:16;9.30;99.90
38568;DHT22;24338;48.280;10.970;2023-04-24T02:21:44;9.30;99.90
38568;DHT22;24338;48.280;10.970;2023-04-24T02:24:15;9.30;99.90
38568;DHT22;24338;48.280;10.970;2023-04-24T02:26:52;9.30;99.90
38568;DHT22;24338;48.280;10.970;2023-04-24T02:29:30;9.30;99.90
38568;DHT22;24338;48.280;10.970;2023-04-24T02:32:31;9.30;99.90
38568;DHT22;24338;48.280;10.970;2023-04-24T02:35:17;9.30;99.90
38568;DHT22;24338;48.280;10.970;2023-04-24T02:38:21;9.30;99.90
38568;DHT22;24338;48.280;10.970;2023-04-24T02:41:31;9.30;99.90
38568;DHT22;24338;48.280;10.970;2023-04-24T02:44:11;9.20;99.90
38568;DHT22;24338;48.280;10.970;2023-04-24T02:46:38;9.20;99.90
38568;DHT22;24338;48.280;10.970;2023-04-24T02:49:07;9.20;99.90
38568;DHT22;24338;48.280;10.970;2023-04-24T02:51:34;9.20;99.90
38568;DHT22;24338;48.280;10.970;2023-04-24T02:54:10;9.20;99.90
38568;DHT22;24338;48.280;10.970;2023-04-24T02:56:38;9.20;99.90
38568;DHT22;24338;48.280;10.970;2023-04-24T02:59:05;9.20;99.90
38568;DHT22;24338;48.280;10.970;2023-04-24T03:01:32;9.20;99.90
38568;DHT22;24338;48.280;10.970;2023-04-24T03:03:59;9.20;99.90
38568;DHT22;24338;48.280;10.970;2023-04-24T03:06:26;9.20;99.90
38568;DHT22;24338;48.280;10.970;2023-04-24T03:08:54;9.20;99.90
38568;DHT22;24338;48.280;10.970;2023-04-24T03:11:22;9.20;99.90
38568;DHT22;24338;48.280;10.970;2023-04-24T03:13:50;9.20;99.90
38568;DHT22;24338;48.280;10.970;2023-04-24T03:16:17;9.20;99.90
38568;DHT22;24338;48.280;10.970;2023-04-24T03:18:45;9.20;99.90
38568;DHT22;24338;48.280;10.970;2023-04-24T03:21:12;9.20;99.90
38568;DHT22;24338;48.280;10.970;2023-04-24T03:23:40;9.20;99.90
38568;DHT22;24338;48.280;10.970;2023-04-24T03:26:07;9.10;99.90
38568;DHT22;24338;48.280;10.970;2023-04-24T03:28:34;9.10;99.90
38568;DHT22;24338;48.280;10.970;2023-04-24T03:31:02;9.10;99.90
38568;DHT22;24338;48.280;10.970;2023-04-24T03:33:30;9.10;99.90
38568;DHT22;24338;48.280;10.970;2023-04-24T03:35:57;9.10;99.90
38568;DHT22;24338;48.280;10.970;2023-04-24T03:38:24;9.10;99.90
38568;DHT22;24338;48.280;10.970;2023-04-24T03:40:51;9.10;99.90
38568;DHT22;24338;48.280;10.970;2023-04-24T03:43:19;9.10;99.90
38568;DHT22;24338;48.280;10.970;2023-04-24T03:45:46;9.10;99.90
38568;DHT22;24338;48.280;10.970;2023-04-24T03:48:13;9.10;99.90
38568;DHT22;24338;48.280;10.970;2023-04-24T03:50:40;9.00;99.90
38568;DHT22;24338;48.280;10.970;2023-04-24T03:53:07;9.00;99.90
38568;DHT22;24338;48.280;10.970;2023-04-24T03:55:35;9.00;99.90
38568;DHT22;24338;48.280;10.970;2023-04-24T03:58:02;9.00;99.90
38568;DHT22;24338;48.280;10.970;2023-04-24T04:00:29;9.00;99.90
38568;DHT22;24338;48.280;10.970;2023-04-24T04:02:58;9.00;99.90
38568;DHT22;24338;48.280;10.970;2023-04-24T04:05:26;8.90;99.90
38568;DHT22;24338;48.280;10.970;2023-04-24T04:07:53;8.90;99.90
38568;DHT22;24338;48.280;10.970;2023-04-24T04:10:20;9.00;99.90
38568;DHT22;24338;48.280;10.970;2023-04-24T04:12:48;8.90;99.90
38568;DHT22;24338;48.280;10.970;2023-04-24T04:15:15;8.90;99.90
38568;DHT22;24338;48.280;10.970;2023-04-24T04:17:42;8.90;99.90
38568;DHT22;24338;48.280;10.970;2023-04-24T04:20:10;8.80;99.90
38568;DHT22;24338;48.280;10.970;2023-04-24T04:22:37;8.80;99.90
38568;DHT22;24338;48.280;10.970;2023-04-24T04:25:04;8.80;99.90
38568;DHT22;24338;48.280;10.970;2023-04-24T04:27:32;8.90;99.90
38568;DHT22;24338;48.280;10.970;2023-04-24T04:29:59;8.90;99.90
38568;DHT22;24338;48.280;10.970;2023-04-24T04:32:31;8.90;99.90
38568;DHT22;24338;48.280;10.970;2023-04-24T04:35:00;8.80;99.90
38568;DHT22;24338;48.280;10.970;2023-04-24T04:37:32;8.90;99.90
38568;DHT22;24338;48.280;10.970;2023-04-24T04:40:00;8.90;99.90
38568;DHT22;24338;48.280;10.970;2023-04-24T04:42:27;8.90;99.90
38568;DHT22;24338;48.280;10.970;2023-04-24T04:44:55;8.90;99.90
38568;DHT22;24338;48.280;10.970;2023-04-24T04:47:24;9.00;99.90
38568;DHT22;24338;48.280;10.970;2023-04-24T04:49:55;9.00;99.90
38568;DHT22;24338;48.280;10.970;2023-04-24T04:52:45;9.00;99.90
38568;DHT22;24338;48.280;10.970;2023-04-24T04:55:52;9.00;99.90
38568;DHT22;24338;48.280;10.970;2023-04-24T04:58:51;9.10;99.90
38568;DHT22;24338;48.280;10.970;2023-04-24T05:01:17;9.10;99.90
38568;DHT22;24338;48.280;10.970;2023-04-24T05:03:44;9.10;99.90
38568;DHT22;24338;48.280;10.970;2023-04-24T05:06:12;9.20;99.90
38568;DHT22;24338;48.280;10.970;2023-04-24T05:08:39;9.20;99.90
38568;DHT22;24338;48.280;10.970;2023-04-24T05:11:06;9.20;99.90
38568;DHT22;24338;48.280;10.970;2023-04-24T05:13:33;9.20;99.90
38568;DHT22;24338;48.280;10.970;2023-04-24T05:16:06;9.20;99.90
38568;DHT22;24338;48.280;10.970;2023-04-24T05:18:33;9.30;99.90
38568;DHT22;24338;48.280;10.970;2023-04-24T05:21:00;9.30;99.90
38568;DHT22;24338;48.280;10.970;2023-04-24T05:23:28;9.30;99.90
38568;DHT22;24338;48.280;10.970;2023-04-24T05:25:54;9.30;99.90
38568;DHT22;24338;48.280;10.970;2023-04-24T05:28:21;9.30;99.90
38568;DHT22;24338;48.280;10.970;2023-04-24T05:30:48;9.30;99.90
38568;DHT22;24338;48.280;10.970;2023-04-24T05:33:15;9.40;99.90
38568;DHT22;24338;48.280;10.970;2023-04-24T05:35:42;9.40;99.90
38568;DHT22;24338;48.280;10.970;2023-04-24T05:38:12;9.40;99.90
38568;DHT22;24338;48.280;10.970;2023-04-24T05:40:40;9.40;99.90
38568;DHT22;24338;48.280;10.970;2023-04-24T05:43:07;9.50;99.90
38568;DHT22;24338;48.280;10.970;2023-04-24T05:45:33;9.40;99.90
38568;DHT22;24338;48.280;10.970;2023-04-24T05:48:03;9.40;99.90
38568;DHT22;24338;48.280;10.970;2023-04-24T05:50:30;9.50;99.90
38568;DHT22;24338;48.280;10.970;2023-04-24T05:52:57;9.50;99.90
38568;DHT22;24338;48.280;10.970;2023-04-24T05:55:28;9.50;99.90
38568;DHT22;24338;48.280;10.970;2023-04-24T05:57:55;9.50;99.90
38568;DHT22;24338;48.280;10.970;2023-04-24T06:00:23;9.50;99.90
38568;DHT22;24338;48.280;10.970;2023-04-24T06:02:50;9.60;99.90
38568;DHT22;24338;48.280;10.970;2023-04-24T06:05:17;9.60;99.90
38568;DHT22;24338;48.280;10.970;2023-04-24T06:07:44;9.60;99.90
38568;DHT22;24338;48.280;10.970;2023-04-24T06:10:11;9.60;99.90
38568;DHT22;24338;48.280;10.970;2023-04-24T06:12:38;9.70;99.90
38568;DHT22;24338;48.280;10.970;2023-04-24T06:15:05;9.70;99.90
38568;DHT22;24338;48.280;10.970;2023-04-24T06:17:32;9.70;99.90
38568;DHT22;24338;48.280;10.970;2023-04-24T06:19:59;9.70;99.90
38568;DHT22;24338;48.280;10.970;2023-04-24T06:22:26;9.70;99.90
38568;DHT22;24338;48.280;10.970;2023-04-24T06:24:52;9.70;99.90
38568;DHT22;24338;48.280;10.970;2023-04-24T06:27:19;9.80;99.90
38568;DHT22;24338;48.280;10.970;2023-04-24T06:29:46;9.70;99.90
38568;DHT22;24338;48.280;10.970;2023-04-24T06:32:19;9.80;99.90
38568;DHT22;24338;48.280;10.970;2023-04-24T06:34:46;9.80;99.90
38568;DHT22;24338;48.280;10.970;2023-04-24T06:37:14;9.80;99.90
38568;DHT22;24338;48.280;10.970;2023-04-24T06:39:40;9.90;99.90
38568;DHT22;24338;48.280;10.970;2023-04-24T06:42:08;9.90;99.90
38568;DHT22;24338;48.280;10.970;2023-04-24T06:44:36;10.00;99.90
38568;DHT22;24338;48.280;10.970;2023-04-24T06:47:08;10.00;99.90
38568;DHT22;24338;48.280;10.970;2023-04-24T06:49:38;10.00;99.90
38568;DHT22;24338;48.280;10.970;2023-04-24T06:52:05;10.10;99.90
38568;DHT22;24338;48.280;10.970;2023-04-24T06:54:32;10.10;99.90
38568;DHT22;24338;48.280;10.970;2023-04-24T06:57:00;10.10;99.90
38568;DHT22;24338;48.280;10.970;2023-04-24T06:59:30;10.10;99.90
38568;DHT22;24338;48.280;10.970;2023-04-24T07:01:57;10.20;99.90
38568;DHT22;24338;48.280;10.970;2023-04-24T07:04:24;10.20;99.90
38568;DHT22;24338;48.280;10.970;2023-04-24T07:06:52;10.20;99.90
38568;DHT22;24338;48.280;10.970;2023-04-24T07:09:22;10.20;99.90
38568;DHT22;24338;48.280;10.970;2023-04-24T07:11:50;10.20;99.90
38568;DHT22;24338;48.280;10.970;2023-04-24T07:14:17;10.20;99.90
38568;DHT22;24338;48.280;10.970;2023-04-24T07:16:44;10.20;99.90
38568;DHT22;24338;48.280;10.970;2023-04-24T07:19:12;10.20;99.90
38568;DHT22;24338;48.280;10.970;2023-04-24T07:21:39;10.20;99.90
38568;DHT22;24338;48.280;10.970;2023-04-24T07:24:06;10.20;99.90
38568;DHT22;24338;48.280;10.970;2023-04-24T07:26:37;10.10;99.90
38568;DHT22;24338;48.280;10.970;2023-04-24T07:29:04;10.20;99.90
38568;DHT22;24338;48.280;10.970;2023-04-24T07:31:31;10.20;99.90
38568;DHT22;24338;48.280;10.970;2023-04-24T07:33:58;10.10;99.90
38568;DHT22;24338;48.280;10.970;2023-04-24T07:36:25;10.20;99.90
38568;DHT22;24338;48.280;10.970;2023-04-24T07:38:52;10.10;99.90
38568;DHT22;24338;48.280;10.970;2023-04-24T07:41:19;10.10;99.90
38568;DHT22;24338;48.280;10.970;2023-04-24T07:43:48;10.10;99.90
38568;DHT22;24338;48.280;10.970;2023-04-24T07:46:15;10.10;99.90
38568;DHT22;24338;48.280;10.970;2023-04-24T07:48:42;10.10;99.90
38568;DHT22;24338;48.280;10.970;2023-04-24T07:51:09;10.00;99.90
38568;DHT22;24338;48.280;10.970;2023-04-24T07:53:37;9.80;99.90
38568;DHT22;24338;48.280;10.970;2023-04-24T07:56:04;9.80;99.90
38568;DHT22;24338;48.280;10.970;2023-04-24T07:58:31;9.80;99.90
38568;DHT22;24338;48.280;10.970;2023-04-24T08:00:58;9.80;99.90
38568;DHT22;24338;48.280;10.970;2023-04-24T08:03:25;9.80;99.90
38568;DHT22;24338;48.280;10.970;2023-04-24T08:05:52;10.00;99.90
38568;DHT22;24338;48.280;10.970;2023-04-24T08:08:21;10.10;99.90
38568;DHT22;24338;48.280;10.970;2023-04-24T08:10:49;10.20;99.90
38568;DHT22;24338;48.280;10.970;2023-04-24T08:13:16;10.30;99.90
38568;DHT22;24338;48.280;10.970;2023-04-24T08:15:43;10.40;99.90
38568;DHT22;24338;48.280;10.970;2023-04-24T08:18:09;10.40;99.90
38568;DHT22;24338;48.280;10.970;2023-04-24T08:20:38;10.50;99.90
38568;DHT22;24338;48.280;10.970;2023-04-24T08:23:06;10.30;99.90
38568;DHT22;24338;48.280;10.970;2023-04-24T08:25:33;10.40;99.90
38568;DHT22;24338;48.280;10.970;2023-04-24T08:28:03;10.40;99.90
38568;DHT22;24338;48.280;10.970;2023-04-24T08:30:30;10.50;99.90
38568;DHT22;24338;48.280;10.970;2023-04-24T08:32:57;10.70;99.90
38568;DHT22;24338;48.280;10.970;2023-04-24T08:35:24;10.90;99.90
38568;DHT22;24338;48.280;10.970;2023-04-24T08:37:52;11.00;99.90
38568;DHT22;24338;48.280;10.970;2023-04-24T08:40:25;11.20;99.90
38568;DHT22;24338;48.280;10.970;2023-04-24T08:42:54;11.20;99.90
38568;DHT22;24338;48.280;10.970;2023-04-24T08:45:23;11.20;99.90
38568;DHT22;24338;48.280;10.970;2023-04-24T08:47:50;11.30;99.90
38568;DHT22;24338;48.280;10.970;2023-04-24T08:50:18;11.40;99.90
38568;DHT22;24338;48.280;10.970;2023-04-24T08:52:45;11.40;99.90
38568;DHT22;24338;48.280;10.970;2023-04-24T08:55:13;11.50;99.90
38568;DHT22;24338;48.280;10.970;2023-04-24T08:57:41;11.60;99.90
38568;DHT22;24338;48.280;10.970;2023-04-24T09:00:08;11.80;99.90
38568;DHT22;24338;48.280;10.970;2023-04-24T09:02:41;12.10;99.90
38568;DHT22;24338;48.280;10.970;2023-04-24T09:05:10;12.20;99.90
38568;DHT22;24338;48.280;10.970;2023-04-24T09:07:39;12.40;99.90
38568;DHT22;24338;48.280;10.970;2023-04-24T09:10:08;12.50;99.90
38568;DHT22;24338;48.280;10.970;2023-04-24T09:12:35;12.60;99.90
38568;DHT22;24338;48.280;10.970;2023-04-24T09:15:02;12.80;99.90
38568;DHT22;24338;48.280;10.970;2023-04-24T09:17:33;12.90;99.90
38568;DHT22;24338;48.280;10.970;2023-04-24T09:20:00;12.70;99.90
38568;DHT22;24338;48.280;10.970;2023-04-24T09:22:30;12.60;99.90
38568;DHT22;24338;48.280;10.970;2023-04-24T09:25:08;12.50;99.90
38568;DHT22;24338;48.280;10.970;2023-04-24T09:27:35;12.30;99.90
38568;DHT22;24338;48.280;10.970;2023-04-24T09:30:02;12.10;99.90
38568;DHT22;24338;48.280;10.970;2023-04-24T09:32:29;11.90;99.90
38568;DHT22;24338;48.280;10.970;2023-04-24T09:35:08;11.90;99.90
38568;DHT22;24338;48.280;10.970;2023-04-24T09:37:37;12.10;99.90
38568;DHT22;24338;48.280;10.970;2023-04-24T09:40:18;12.10;99.90
38568;DHT22;24338;48.280;10.970;2023-04-24T09:42:54;12.30;99.90
38568;DHT22;24338;48.280;10.970;2023-04-24T09:45:21;12.60;99.90
38568;DHT22;24338;48.280;10.970;2023-04-24T09:47:51;12.70;99.90
38568;DHT22;24338;48.280;10.970;2023-04-24T09:50:21;12.90;99.90
38568;DHT22;24338;48.280;10.970;2023-04-24T09:52:59;13.10;99.90
38568;DHT22;24338;48.280;10.970;2023-04-24T09:55:26;12.80;99.90
38568;DHT22;24338;48.280;10.970;2023-04-24T09:57:58;12.70;99.90
38568;DHT22;24338;48.280;10.970;2023-04-24T10:00:28;12.80;99.90
38568;DHT22;24338;48.280;10.970;2023-04-24T10:03:05;12.80;99.90
38568;DHT22;24338;48.280;10.970;2023-04-24T10:05:34;12.90;99.90
38568;DHT22;24338;48.280;10.970;2023-04-24T10:10:31;13.00;99.90
38568;DHT22;24338;48.280;10.970;2023-04-24T10:12:59;12.90;99.90
38568;DHT22;24338;48.280;10.970;2023-04-24T10:15:27;12.50;99.90
38568;DHT22;24338;48.280;10.970;2023-04-24T10:17:54;12.00;99.90
38568;DHT22;24338;48.280;10.970;2023-04-24T10:20:23;12.00;99.90
38568;DHT22;24338;48.280;10.970;2023-04-24T10:22:51;12.00;99.90
38568;DHT22;24338;48.280;10.970;2023-04-24T10:25:23;12.10;99.90
38568;DHT22;24338;48.280;10.970;2023-04-24T10:27:51;12.20;99.90
38568;DHT22;24338;48.280;10.970;2023-04-24T10:30:20;12.10;99.90
38568;DHT22;24338;48.280;10.970;2023-04-24T10:32:47;11.90;99.90
38568;DHT22;24338;48.280;10.970;2023-04-24T10:35:15;11.60;99.90
38568;DHT22;24338;48.280;10.970;2023-04-24T10:40:34;10.70;99.90
38568;DHT22;24338;48.280;10.970;2023-04-24T10:43:05;10.20;99.90
38568;DHT22;24338;48.280;10.970;2023-04-24T10:45:34;10.00;99.90
38568;DHT22;24338;48.280;10.970;2023-04-24T10:48:06;9.70;99.90
38568;DHT22;24338;48.280;10.970;2023-04-24T10:50:47;9.80;99.90
38568;DHT22;24338;48.280;10.970;2023-04-24T10:53:16;9.80;99.90
38568;DHT22;24338;48.280;10.970;2023-04-24T10:55:51;10.00;99.90
38568;DHT22;24338;48.280;10.970;2023-04-24T10:58:23;10.10;99.90
38568;DHT22;24338;48.280;10.970;2023-04-24T11:01:00;10.30;99.90
38568;DHT22;24338;48.280;10.970;2023-04-24T11:03:32;10.60;99.90
38568;DHT22;24338;48.280;10.970;2023-04-24T11:06:05;10.80;99.90
38568;DHT22;24338;48.280;10.970;2023-04-24T11:08:43;11.20;99.90
38568;DHT22;24338;48.280;10.970;2023-04-24T11:11:11;11.60;99.90
38568;DHT22;24338;48.280;10.970;2023-04-24T11:25:23;12.80;99.90
38568;DHT22;24338;48.280;10.970;2023-04-24T11:28:35;12.90;99.90
38568;DHT22;24338;48.280;10.970;2023-04-24T11:35:49;13.20;99.90
38568;DHT22;24338;48.280;10.970;2023-04-24T11:39:20;13.30;99.90
38568;DHT22;24338;48.280;10.970;2023-04-24T11:42:25;13.70;99.90
38568;DHT22;24338;48.280;10.970;2023-04-24T11:46:15;13.70;99.90
38568;DHT22;24338;48.280;10.970;2023-04-24T11:49:22;14.00;99.90
38568;DHT22;24338;48.280;10.970;2023-04-24T11:52:15;14.20;99.90
38568;DHT22;24338;48.280;10.970;2023-04-24T11:55:33;14.50;99.90
38568;DHT22;24338;48.280;10.970;2023-04-24T11:58:57;14.40;99.60
38568;DHT22;24338;48.280;10.970;2023-04-24T12:02:23;14.70;99.90
38568;DHT22;24338;48.280;10.970;2023-04-24T12:05:52;15.10;96.50
38568;DHT22;24338;48.280;10.970;2023-04-24T12:16:54;13.40;97.20
38568;DHT22;24338;48.280;10.970;2023-04-24T12:20:06;13.30;98.50
38568;DHT22;24338;48.280;10.970;2023-04-24T12:23:14;13.00;98.90
38568;DHT22;24338;48.280;10.970;2023-04-24T12:26:18;13.20;99.90
38568;DHT22;24338;48.280;10.970;2023-04-24T12:30:16;13.90;98.60
38568;DHT22;24338;48.280;10.970;2023-04-24T12:33:25;14.50;97.30
38568;DHT22;24338;48.280;10.970;2023-04-24T12:35:52;14.70;95.00
38568;DHT22;24338;48.280;10.970;2023-04-24T12:38:26;15.00;98.20
38568;DHT22;24338;48.280;10.970;2023-04-24T12:41:04;15.50;95.80
38568;DHT22;24338;48.280;10.970;2023-04-24T12:59:33;13.80;95.10
38568;DHT22;24338;48.280;10.970;2023-04-24T13:02:00;13.80;94.20
38568;DHT22;24338;48.280;10.970;2023-04-24T13:04:27;14.20;92.60
38568;DHT22;24338;48.280;10.970;2023-04-24T13:06:54;14.30;92.10
38568;DHT22;24338;48.280;10.970;2023-04-24T13:09:52;14.00;93.70
38568;DHT22;24338;48.280;10.970;2023-04-24T13:12:46;13.60;93.80
38568;DHT22;24338;48.280;10.970;2023-04-24T13:15:13;13.20;95.40
38568;DHT22;24338;48.280;10.970;2023-04-24T13:17:40;13.00;95.90
38568;DHT22;24338;48.280;10.970;2023-04-24T13:20:07;13.10;97.70
38568;DHT22;24338;48.280;10.970;2023-04-24T13:22:35;13.20;95.50
38568;DHT22;24338;48.280;10.970;2023-04-24T13:25:02;13.20;97.10
38568;DHT22;24338;48.280;10.970;2023-04-24T13:27:29;13.20;96.40
38568;DHT22;24338;48.280;10.970;2023-04-24T13:29:56;13.20;95.40
38568;DHT22;24338;48.280;10.970;2023-04-24T13:32:23;13.40;94.10
38568;DHT22;24338;48.280;10.970;2023-04-24T13:34:50;13.80;95.10
38568;DHT22;24338;48.280;10.970;2023-04-24T13:37:17;13.90;92.00
38568;DHT22;24338;48.280;10.970;2023-04-24T13:39:43;13.90;92.90
38568;DHT22;24338;48.280;10.970;2023-04-24T13:42:10;14.00;92.20
38568;DHT22;24338;48.280;10.970;2023-04-24T13:44:37;14.00;90.50
38568;DHT22;24338;48.280;10.970;2023-04-24T13:47:04;14.20;91.60
38568;DHT22;24338;48.280;10.970;2023-04-24T13:49:32;14.10;89.80
38568;DHT22;24338;48.280;10.970;2023-04-24T13:51:59;13.80;89.70
38568;DHT22;24338;48.280;10.970;2023-04-24T13:54:25;13.80;91.50
38568;DHT22;24338;48.280;10.970;2023-04-24T13:56:56;13.80;90.00
38568;DHT22;24338;48.280;10.970;2023-04-24T13:59:23;13.70;90.20
38568;DHT22;24338;48.280;10.970;2023-04-24T14:01:50;13.50;90.30
38568;DHT22;24338;48.280;10.970;2023-04-24T14:04:17;13.40;89.30
38568;DHT22;24338;48.280;10.970;2023-04-24T14:06:44;13.40;90.60
38568;DHT22;24338;48.280;10.970;2023-04-24T14:09:11;13.40;90.80
38568;DHT22;24338;48.280;10.970;2023-04-24T14:11:39;13.50;90.60
38568;DHT22;24338;48.280;10.970;2023-04-24T14:14:06;13.50;89.40
38568;DHT22;24338;48.280;10.970;2023-04-24T14:16:33;13.50;89.40
38568;DHT22;24338;48.280;10.970;2023-04-24T14:18:59;13.50;87.50
38568;DHT22;24338;48.280;10.970;2023-04-24T14:21:26;13.50;89.60
38568;DHT22;24338;48.280;10.970;2023-04-24T14:23:53;13.60;90.70
38568;DHT22;24338;48.280;10.970;2023-04-24T14:26:20;13.60;89.00
38568;DHT22;24338;48.280;10.970;2023-04-24T14:28:48;13.80;86.20
38568;DHT22;24338;48.280;10.970;2023-04-24T14:31:16;13.80;83.80
38568;DHT22;24338;48.280;10.970;2023-04-24T14:33:43;13.80;86.10
38568;DHT22;24338;48.280;10.970;2023-04-24T14:36:10;14.00;87.00
38568;DHT22;24338;48.280;10.970;2023-04-24T14:38:37;14.20;81.20
38568;DHT22;24338;48.280;10.970;2023-04-24T14:41:04;14.10;81.10
38568;DHT22;24338;48.280;10.970;2023-04-24T14:43:39;14.20;79.80
38568;DHT22;24338;48.280;10.970;2023-04-24T14:46:07;14.20;77.70
38568;DHT22;24338;48.280;10.970;2023-04-24T14:48:33;14.20;79.10
38568;DHT22;24338;48.280;10.970;2023-04-24T14:51:00;14.50;77.10
38568;DHT22;24338;48.280;10.970;2023-04-24T14:53:27;14.30;76.30
38568;DHT22;24338;48.280;10.970;2023-04-24T14:55:54;14.10;78.90
38568;DHT22;24338;48.280;10.970;2023-04-24T14:58:21;13.90;77.80
38568;DHT22;24338;48.280;10.970;2023-04-24T15:00:48;13.50;77.70
38568;DHT22;24338;48.280;10.970;2023-04-24T15:03:18;13.50;80.40
38568;DHT22;24338;48.280;10.970;2023-04-24T15:05:46;13.60;81.30
38568;DHT22;24338;48.280;10.970;2023-04-24T15:08:13;13.70;82.00
38568;DHT22;24338;48.280;10.970;2023-04-24T15:10:40;13.80;83.50
38568;DHT22;24338;48.280;10.970;2023-04-24T15:13:07;13.70;84.10
38568;DHT22;24338;48.280;10.970;2023-04-24T15:15:34;13.70;83.20
38568;DHT22;24338;48.280;10.970;2023-04-24T15:18:01;13.60;83.90
38568;DHT22;24338;48.280;10.970;2023-04-24T15:20:28;13.40;84.70
38568;DHT22;24338;48.280;10.970;2023-04-24T15:23:02;13.40;86.20
38568;DHT22;24338;48.280;10.970;2023-04-24T15:25:28;13.10;85.00
38568;DHT22;24338;48.280;10.970;2023-04-24T15:27:55;12.80;86.90
38568;DHT22;24338;48.280;10.970;2023-04-24T15:30:22;12.70;86.10
38568;DHT22;24338;48.280;10.970;2023-04-24T15:32:49;12.50;86.20
38568;DHT22;24338;48.280;10.970;2023-04-24T15:35:16;12.60;85.90
38568;DHT22;24338;48.280;10.970;2023-04-24T15:37:44;12.80;86.70
38568;DHT22;24338;48.280;10.970;2023-04-24T15:40:11;12.90;85.20
38568;DHT22;24338;48.280;10.970;2023-04-24T15:42:41;13.00;83.70
38568;DHT22;24338;48.280;10.970;2023-04-24T15:45:09;13.00;82.10
38568;DHT22;24338;48.280;10.970;2023-04-24T15:47:36;12.70;82.20
38568;DHT22;24338;48.280;10.970;2023-04-24T15:50:04;12.60;83.20
38568;DHT22;24338;48.280;10.970;2023-04-24T15:52:31;12.70;86.50
38568;DHT22;24338;48.280;10.970;2023-04-24T15:54:58;12.50;86.00
38568;DHT22;24338;48.280;10.970;2023-04-24T15:57:25;12.50;87.10
38568;DHT22;24338;48.280;10.970;2023-04-24T15:59:52;12.60;80.70
38568;DHT22;24338;48.280;10.970;2023-04-24T16:02:20;12.70;84.20
38568;DHT22;24338;48.280;10.970;2023-04-24T16:04:48;12.90;82.50
38568;DHT22;24338;48.280;10.970;2023-04-24T16:07:16;12.90;80.80
38568;DHT22;24338;48.280;10.970;2023-04-24T16:09:46;12.80;81.00
38568;DHT22;24338;48.280;10.970;2023-04-24T16:12:13;12.90;81.20
38568;DHT22;24338;48.280;10.970;2023-04-24T16:14:40;12.70;79.70
38568;DHT22;24338;48.280;10.970;2023-04-24T16:17:07;12.50;78.80
38568;DHT22;24338;48.280;10.970;2023-04-24T16:19:34;12.40;82.10
38568;DHT22;24338;48.280;10.970;2023-04-24T16:22:03;12.50;79.80
38568;DHT22;24338;48.280;10.970;2023-04-24T16:24:30;12.30;80.80
38568;DHT22;24338;48.280;10.970;2023-04-24T16:26:57;12.40;82.70
38568;DHT22;24338;48.280;10.970;2023-04-24T16:29:24;12.40;82.20
38568;DHT22;24338;48.280;10.970;2023-04-24T16:31:51;12.40;81.60
38568;DHT22;24338;48.280;10.970;2023-04-24T16:34:18;12.40;83.20
38568;DHT22;24338;48.280;10.970;2023-04-24T16:36:45;12.40;83.20
38568;DHT22;24338;48.280;10.970;2023-04-24T16:39:12;12.40;84.50
38568;DHT22;24338;48.280;10.970;2023-04-24T16:41:39;12.50;82.60